Time;durP1;ratioP1;P1;durP2;ratioP2;P2;SDS_P1;SDS_P2;PMS_P1;PMS_P2;Temp;Humidity;BMP_temperature;BMP_pressure;BME280_temperature;BME280_humidity;BME280_pressure;Samples;Min_cycle;Max_cycle;Signal;HPM_P1;HPM_P2
2023/04/23 00:01:39;;;;;;;0.60;0.60;;;7.50;99.90;;;;;;5056660;28;20196;-71
2023/04/23 00:04:07;;;;;;;0.60;0.60;;;7.50;99.90;;;;;;5073595;28;20563;-70
2023/04/23 00:06:34;;;;;;;0.90;0.90;;;7.50;99.90;;;;;;5054502;28;20194;-70
2023/04/23 00:09:00;;;;;;;0.73;0.73;;;7.50;99.90;;;;;;5055024;28;20600;-71
2023/04/23 00:11:27;;;;;;;0.70;0.70;;;7.60;99.90;;;;;;5054479;28;20623;-72
2023/04/23 00:13:53;;;;;;;0.70;0.70;;;7.50;99.90;;;;;;5054726;28;20276;-72
2023/04/23 00:16:19;;;;;;;0.60;0.60;;;7.50;99.90;;;;;;5054353;28;20606;-71
2023/04/23 00:18:46;;;;;;;0.60;0.60;;;7.40;99.90;;;;;;5053440;28;20566;-72
2023/04/23 00:21:12;;;;;;;0.70;0.70;;;7.30;99.90;;;;;;5054689;28;20194;-72
2023/04/23 00:23:39;;;;;;;0.70;0.70;;;7.20;99.90;;;;;;5049534;28;20216;-72
2023/04/23 00:26:05;;;;;;;0.60;0.60;;;7.10;99.90;;;;;;5034534;28;20650;-72
2023/04/23 00:28:30;;;;;;;0.70;0.70;;;6.90;99.90;;;;;;5015934;28;20194;-72
2023/04/23 00:30:56;;;;;;;0.63;0.63;;;6.80;99.90;;;;;;5034088;28;20252;-72
2023/04/23 00:33:22;;;;;;;0.70;0.70;;;6.70;99.90;;;;;;5016409;28;20289;-71
2023/04/23 00:35:48;;;;;;;0.70;0.70;;;6.60;99.90;;;;;;5046286;28;20228;-72
2023/04/23 00:38:14;;;;;;;0.70;0.70;;;6.60;99.90;;;;;;5035994;28;20205;-71
2023/04/23 00:40:40;;;;;;;0.70;0.70;;;6.50;99.90;;;;;;5053825;28;20672;-71
2023/04/23 00:43:06;;;;;;;0.70;0.70;;;6.40;99.90;;;;;;5053848;28;20284;-72
2023/04/23 00:45:32;;;;;;;0.70;0.70;;;6.40;99.90;;;;;;5053990;28;20240;-72
2023/04/23 00:47:58;;;;;;;11.48;3.00;;;6.30;99.90;;;;;;5053689;28;20194;-72
2023/04/23 00:50:24;;;;;;;0.75;0.75;;;6.30;99.90;;;;;;5053369;28;20268;-71
2023/04/23 00:52:50;;;;;;;0.63;0.63;;;6.30;99.90;;;;;;5053681;28;20193;-72
2023/04/23 00:55:16;;;;;;;1.48;1.15;;;6.20;99.90;;;;;;5053942;28;20247;-72
2023/04/23 00:57:42;;;;;;;0.60;0.60;;;6.20;99.90;;;;;;5053383;28;20202;-72
2023/04/23 01:00:08;;;;;;;0.80;0.80;;;6.20;99.90;;;;;;5053572;28;20272;-71
2023/04/23 01:02:35;;;;;;;1.70;1.60;;;6.20;99.90;;;;;;5059675;22;20272;-71
2023/04/23 01:05:03;;;;;;;0.70;0.70;;;6.20;99.90;;;;;;5033533;28;20201;-70
2023/04/23 01:07:33;;;;;;;0.75;0.75;;;6.20;99.90;;;;;;5033207;28;20186;-71
2023/04/23 01:09:59;;;;;;;0.60;0.60;;;6.20;99.90;;;;;;5034268;28;20756;-70
2023/04/23 01:12:26;;;;;;;1.05;1.02;;;6.30;99.90;;;;;;5033301;28;20216;-71
2023/04/23 01:14:52;;;;;;;0.70;0.70;;;6.30;99.90;;;;;;5016174;28;20202;-70
2023/04/23 01:17:18;;;;;;;0.70;0.70;;;6.30;99.90;;;;;;5033735;28;20277;-70
2023/04/23 01:19:43;;;;;;;0.70;0.70;;;6.30;99.90;;;;;;5033471;28;20321;-71
2023/04/23 01:22:11;;;;;;;0.70;0.70;;;6.30;99.90;;;;;;5015698;28;20568;-70
2023/04/23 01:24:38;;;;;;;0.70;0.70;;;6.30;99.90;;;;;;5033316;28;20213;-71
2023/04/23 01:27:04;;;;;;;0.70;0.70;;;6.30;99.90;;;;;;5015715;28;20209;-70
2023/04/23 01:29:31;;;;;;;0.65;0.65;;;6.20;99.90;;;;;;5033153;28;20194;-71
2023/04/23 01:31:59;;;;;;;0.70;0.70;;;6.10;99.90;;;;;;5015525;28;20661;-70
2023/04/23 01:34:25;;;;;;;0.70;0.70;;;6.10;99.90;;;;;;5033077;28;20220;-71
2023/04/23 01:36:52;;;;;;;0.70;0.70;;;6.00;99.90;;;;;;5015821;28;20621;-70
2023/04/23 01:39:17;;;;;;;1.10;1.10;;;6.00;99.90;;;;;;5033079;28;20288;-71
2023/04/23 01:41:43;;;;;;;2.95;2.35;;;6.00;99.90;;;;;;5033262;28;20269;-71
2023/04/23 01:44:09;;;;;;;0.90;0.90;;;6.00;99.90;;;;;;5033025;28;20672;-71
2023/04/23 01:46:35;;;;;;;0.70;0.70;;;6.00;99.90;;;;;;5015473;28;20198;-71
2023/04/23 01:49:01;;;;;;;0.68;0.68;;;6.00;99.90;;;;;;5032665;28;20259;-70
2023/04/23 01:51:29;;;;;;;0.55;0.55;;;6.00;99.90;;;;;;5032970;28;20197;-71
2023/04/23 01:53:55;;;;;;;0.70;0.70;;;6.00;99.90;;;;;;5015480;28;20703;-70
2023/04/23 01:56:26;;;;;;;0.73;0.73;;;6.00;99.90;;;;;;5032840;28;20194;-71
2023/04/23 01:58:51;;;;;;;0.70;0.70;;;6.00;99.90;;;;;;5033268;28;20560;-71
2023/04/23 02:01:17;;;;;;;0.77;0.77;;;6.00;99.90;;;;;;5032395;28;20194;-71
2023/04/23 02:03:44;;;;;;;0.70;0.70;;;5.90;99.90;;;;;;5032378;28;20315;-71
2023/04/23 02:06:10;;;;;;;0.70;0.70;;;5.90;99.90;;;;;;5032833;28;20316;-70
2023/04/23 02:08:36;;;;;;;0.70;0.70;;;5.90;99.90;;;;;;5019018;28;20670;-71
2023/04/23 02:11:05;;;;;;;0.70;0.70;;;5.90;99.90;;;;;;5052965;28;20193;-70
2023/04/23 02:13:31;;;;;;;0.70;0.70;;;6.00;99.90;;;;;;5052668;28;20256;-71
2023/04/23 02:16:00;;;;;;;0.70;0.70;;;6.00;99.90;;;;;;5052909;28;20243;-70
2023/04/23 02:18:26;;;;;;;0.70;0.70;;;6.10;99.90;;;;;;5052397;28;20209;-71
2023/04/23 02:20:53;;;;;;;0.70;0.70;;;6.10;99.90;;;;;;5022176;28;20386;-71
2023/04/23 02:23:18;;;;;;;0.82;0.82;;;6.10;99.90;;;;;;5032759;28;20209;-73
2023/04/23 02:25:44;;;;;;;0.70;0.70;;;6.10;99.90;;;;;;5015235;28;20271;-71
2023/04/23 02:28:12;;;;;;;0.70;0.70;;;6.20;99.90;;;;;;5014687;28;20209;-69
2023/04/23 02:30:44;;;;;;;0.80;0.80;;;6.30;99.90;;;;;;5032093;28;20182;-71
2023/04/23 02:33:09;;;;;;;0.60;0.60;;;6.30;99.90;;;;;;5032243;28;20198;-71
2023/04/23 02:35:35;;;;;;;0.70;0.70;;;6.30;99.90;;;;;;5032496;28;20217;-71
2023/04/23 02:38:01;;;;;;;0.60;0.60;;;6.40;99.90;;;;;;5032698;28;20201;-71
2023/04/23 02:40:27;;;;;;;0.70;0.70;;;6.40;99.90;;;;;;5032303;28;20202;-72
2023/04/23 02:42:52;;;;;;;0.80;0.80;;;6.40;99.90;;;;;;5035361;28;20206;-70
2023/04/23 02:45:18;;;;;;;0.70;0.70;;;6.40;99.90;;;;;;5036329;28;20186;-70
2023/04/23 02:47:44;;;;;;;1.50;1.40;;;6.40;99.90;;;;;;5034906;28;20272;-71
2023/04/23 02:50:10;;;;;;;0.70;0.70;;;6.40;99.90;;;;;;5036562;28;20186;-72
2023/04/23 02:52:36;;;;;;;0.80;0.80;;;6.50;99.90;;;;;;5036241;28;20339;-71
2023/04/23 02:55:02;;;;;;;0.70;0.70;;;6.60;99.90;;;;;;5036514;28;20277;-72
2023/04/23 02:57:28;;;;;;;0.80;0.80;;;6.60;99.90;;;;;;5035264;28;20256;-71
2023/04/23 02:59:54;;;;;;;1.25;1.15;;;6.50;99.90;;;;;;5036359;28;20194;-70
2023/04/23 03:02:20;;;;;;;0.70;0.70;;;6.50;99.90;;;;;;5018087;28;20229;-71
2023/04/23 03:04:46;;;;;;;0.70;0.70;;;6.50;99.90;;;;;;5017680;28;20263;-70
2023/04/23 03:07:12;;;;;;;0.80;0.80;;;6.50;99.90;;;;;;5036088;28;20244;-71
2023/04/23 03:09:38;;;;;;;0.70;0.70;;;6.40;99.90;;;;;;5018286;28;20293;-71
2023/04/23 03:12:07;;;;;;;0.70;0.70;;;6.40;99.90;;;;;;5035574;28;20581;-70
2023/04/23 03:14:32;;;;;;;0.70;0.70;;;6.40;99.90;;;;;;5018201;28;20205;-70
2023/04/23 03:17:01;;;;;;;0.70;0.70;;;6.40;99.90;;;;;;5035859;28;20649;-70
2023/04/23 03:19:27;;;;;;;0.60;0.60;;;6.40;99.90;;;;;;5035755;28;20206;-71
2023/04/23 03:21:52;;;;;;;0.70;0.70;;;6.30;99.90;;;;;;5035941;28;20652;-70
2023/04/23 03:24:18;;;;;;;0.80;0.80;;;6.30;99.90;;;;;;5035576;28;20238;-71
2023/04/23 03:26:46;;;;;;;0.70;0.70;;;6.30;99.90;;;;;;5035768;28;20277;-71
2023/04/23 03:29:12;;;;;;;0.70;0.70;;;6.30;99.90;;;;;;5018086;28;20195;-70
2023/04/23 03:31:38;;;;;;;0.70;0.70;;;6.30;99.90;;;;;;5035479;28;20568;-71
2023/04/23 03:34:03;;;;;;;1.25;1.15;;;6.30;99.90;;;;;;5035411;28;20194;-71
2023/04/23 03:36:29;;;;;;;0.70;0.70;;;6.30;99.90;;;;;;5028770;28;20243;-71
2023/04/23 03:38:55;;;;;;;0.70;0.70;;;6.30;99.90;;;;;;5035627;28;20225;-71
2023/04/23 03:41:21;;;;;;;0.70;0.70;;;6.30;99.90;;;;;;5035417;28;20221;-71
2023/04/23 03:43:46;;;;;;;0.65;0.65;;;6.30;99.90;;;;;;5031339;28;20255;-70
2023/04/23 03:46:12;;;;;;;0.80;0.80;;;6.40;99.90;;;;;;5037600;28;20597;-71
2023/04/23 03:48:38;;;;;;;0.70;0.70;;;6.40;99.90;;;;;;5055013;28;20190;-70
2023/04/23 03:51:03;;;;;;;0.70;0.70;;;6.40;99.90;;;;;;5054627;28;20197;-71
2023/04/23 03:53:29;;;;;;;0.70;0.70;;;6.50;99.90;;;;;;5037032;28;20284;-71
2023/04/23 03:55:55;;;;;;;0.68;0.68;;;6.50;99.90;;;;;;5027289;28;20233;-70
2023/04/23 03:58:21;;;;;;;0.70;0.70;;;6.50;99.90;;;;;;5054990;28;20201;-71
2023/04/23 04:00:47;;;;;;;0.70;0.70;;;6.60;99.90;;;;;;5053265;28;20202;-71
2023/04/23 04:03:12;;;;;;;0.70;0.70;;;6.60;99.90;;;;;;5034645;28;20720;-70
2023/04/23 04:05:38;;;;;;;0.60;0.60;;;6.60;99.90;;;;;;5035100;28;20201;-71
2023/04/23 04:08:04;;;;;;;0.70;0.70;;;6.60;99.90;;;;;;5033693;28;20198;-71
2023/04/23 04:10:33;;;;;;;0.80;0.80;;;6.70;99.90;;;;;;5017314;28;20202;-70
2023/04/23 04:12:58;;;;;;;0.70;0.70;;;6.70;99.90;;;;;;5035016;28;20281;-71
2023/04/23 04:15:24;;;;;;;0.70;0.70;;;6.70;99.90;;;;;;5033384;28;20784;-70
2023/04/23 04:17:50;;;;;;;0.70;0.70;;;6.80;99.90;;;;;;5033316;28;20230;-70
2023/04/23 04:20:16;;;;;;;0.70;0.70;;;6.80;99.90;;;;;;5034389;28;20206;-70
2023/04/23 04:22:41;;;;;;;0.70;0.70;;;6.80;99.90;;;;;;5034665;28;20273;-70
2023/04/23 04:25:07;;;;;;;0.70;0.70;;;6.90;99.90;;;;;;5034684;28;20193;-70
2023/04/23 04:27:34;;;;;;;0.70;0.70;;;6.90;99.90;;;;;;5034487;28;20194;-71
2023/04/23 04:30:01;;;;;;;0.70;0.70;;;6.90;99.90;;;;;;5034170;28;20563;-70
2023/04/23 04:32:27;;;;;;;0.63;0.63;;;6.90;99.90;;;;;;5036949;28;20203;-70
2023/04/23 04:34:53;;;;;;;0.70;0.70;;;6.90;99.90;;;;;;5049846;28;20202;-71
2023/04/23 04:37:20;;;;;;;0.70;0.70;;;7.00;99.90;;;;;;5034463;28;20259;-71
2023/04/23 04:39:46;;;;;;;0.70;0.70;;;7.00;99.90;;;;;;5034526;28;20272;-70
2023/04/23 04:42:12;;;;;;;0.70;0.70;;;7.00;99.90;;;;;;5034385;28;20213;-71
2023/04/23 04:44:38;;;;;;;0.60;0.60;;;7.00;99.90;;;;;;5033007;28;20739;-71
2023/04/23 04:47:06;;;;;;;0.68;0.68;;;7.10;99.90;;;;;;5016543;28;20289;-71
2023/04/23 04:49:32;;;;;;;0.70;0.70;;;7.10;99.90;;;;;;5016539;28;20202;-71
2023/04/23 04:51:59;;;;;;;0.70;0.70;;;7.20;99.90;;;;;;5033044;28;20754;-71
2023/04/23 04:54:25;;;;;;;0.60;0.60;;;7.30;99.90;;;;;;5034055;28;20202;-71
2023/04/23 04:56:50;;;;;;;0.95;0.95;;;7.30;99.90;;;;;;5033789;28;20198;-71
2023/04/23 04:59:16;;;;;;;0.70;0.70;;;7.40;99.90;;;;;;5034176;28;20678;-71
2023/04/23 05:01:43;;;;;;;0.70;0.70;;;7.50;99.90;;;;;;5012791;28;20221;-71
2023/04/23 05:04:08;;;;;;;0.70;0.70;;;7.60;99.90;;;;;;5032800;28;20242;-71
2023/04/23 05:06:34;;;;;;;0.65;0.65;;;7.60;99.90;;;;;;5033770;28;20272;-70
2023/04/23 05:09:00;;;;;;;0.70;0.70;;;7.60;99.90;;;;;;5033670;28;20194;-71
2023/04/23 05:11:26;;;;;;;0.60;0.60;;;7.70;99.90;;;;;;5033274;28;20190;-71
2023/04/23 05:13:52;;;;;;;0.60;0.60;;;7.70;99.90;;;;;;5016108;28;20230;-71
2023/04/23 05:16:18;;;;;;;0.60;0.60;;;7.70;99.90;;;;;;5015895;28;20237;-71
2023/04/23 05:18:44;;;;;;;0.70;0.70;;;7.80;99.90;;;;;;5033701;28;20228;-71
2023/04/23 05:21:09;;;;;;;0.70;0.70;;;7.80;99.90;;;;;;5033592;28;20301;-71
2023/04/23 05:23:35;;;;;;;0.70;0.70;;;7.90;99.90;;;;;;5033438;28;20233;-71
2023/04/23 05:26:02;;;;;;;0.70;0.70;;;8.00;99.90;;;;;;5033659;28;20198;-71
2023/04/23 05:28:29;;;;;;;0.70;0.70;;;8.00;99.90;;;;;;5033143;28;20200;-72
2023/04/23 05:30:56;;;;;;;2.67;2.45;;;8.10;99.90;;;;;;5033502;28;20273;-71
2023/04/23 05:33:22;;;;;;;2.13;1.23;;;8.20;99.90;;;;;;5033278;28;20211;-72
2023/04/23 05:35:50;;;;;;;0.60;0.60;;;8.30;99.90;;;;;;5033265;28;20726;-71
2023/04/23 05:38:16;;;;;;;0.65;0.65;;;8.50;99.90;;;;;;5033273;28;20198;-71
2023/04/23 05:40:42;;;;;;;0.60;0.60;;;8.70;99.90;;;;;;5031983;28;20221;-71
2023/04/23 05:43:08;;;;;;;0.60;0.60;;;8.80;99.90;;;;;;5033060;28;20348;-71
2023/04/23 05:45:33;;;;;;;0.60;0.60;;;8.90;99.90;;;;;;5033116;28;20237;-71
2023/04/23 05:47:59;;;;;;;1.15;1.08;;;9.10;99.90;;;;;;5015830;28;20202;-71
2023/04/23 05:50:25;;;;;;;0.60;0.60;;;9.30;99.90;;;;;;5014738;28;20221;-71
2023/04/23 05:52:51;;;;;;;0.63;0.63;;;9.40;99.90;;;;;;5031938;28;20201;-71
2023/04/23 05:55:17;;;;;;;0.95;0.88;;;9.50;99.90;;;;;;5032750;28;20869;-71
2023/04/23 05:57:43;;;;;;;0.60;0.60;;;9.60;99.90;;;;;;5032939;28;20264;-71
2023/04/23 06:00:10;;;;;;;0.60;0.60;;;9.60;99.90;;;;;;5015419;28;20197;-71
2023/04/23 06:02:36;;;;;;;0.70;0.70;;;9.60;99.90;;;;;;5014585;28;20264;-72
2023/04/23 06:05:05;;;;;;;0.60;0.60;;;9.60;99.90;;;;;;5033251;28;20198;-71
2023/04/23 06:07:32;;;;;;;0.60;0.60;;;9.60;99.90;;;;;;5015270;28;20213;-71
2023/04/23 06:09:57;;;;;;;0.60;0.60;;;9.60;99.90;;;;;;5015231;28;20198;-71
2023/04/23 06:12:23;;;;;;;0.60;0.60;;;9.80;99.90;;;;;;5015073;28;20204;-71
2023/04/23 06:14:51;;;;;;;0.65;0.65;;;9.90;99.90;;;;;;5032872;28;20230;-71
2023/04/23 06:17:20;;;;;;;0.63;0.63;;;10.10;99.90;;;;;;5036527;28;20247;-71
2023/04/23 06:19:45;;;;;;;0.60;0.60;;;10.20;99.90;;;;;;5036886;28;20229;-71
2023/04/23 06:22:11;;;;;;;0.60;0.60;;;10.40;99.90;;;;;;5036960;28;20609;-71
2023/04/23 06:24:37;;;;;;;0.50;0.50;;;10.70;99.90;;;;;;5036523;28;20210;-73
2023/04/23 06:27:03;;;;;;;0.80;0.80;;;10.80;99.90;;;;;;5036805;28;20201;-71
2023/04/23 06:29:29;;;;;;;0.60;0.60;;;10.90;99.90;;;;;;5036354;28;20194;-71
2023/04/23 06:31:55;;;;;;;0.90;0.90;;;11.00;99.90;;;;;;5036273;28;20291;-69
2023/04/23 06:34:22;;;;;;;1.02;1.00;;;11.20;99.90;;;;;;5018028;28;20618;-72
2023/04/23 06:36:47;;;;;;;0.60;0.60;;;11.20;99.90;;;;;;5036741;28;20269;-71
2023/04/23 06:39:13;;;;;;;0.68;0.68;;;11.20;99.90;;;;;;5019081;28;20225;-71
2023/04/23 06:41:39;;;;;;;1.48;0.85;;;11.20;99.90;;;;;;5036432;28;20204;-72
2023/04/23 06:44:05;;;;;;;0.70;0.70;;;11.10;99.90;;;;;;5036561;28;20214;-71
2023/04/23 06:46:30;;;;;;;0.50;0.50;;;11.00;99.90;;;;;;5018658;28;20194;-71
2023/04/23 06:48:56;;;;;;;0.50;0.50;;;10.80;99.90;;;;;;5036439;28;20248;-71
2023/04/23 06:51:25;;;;;;;0.60;0.60;;;10.70;99.90;;;;;;5018210;28;20194;-72
2023/04/23 06:53:51;;;;;;;0.60;0.60;;;10.50;99.90;;;;;;5035369;28;20198;-72
2023/04/23 06:56:17;;;;;;;0.57;0.57;;;10.40;99.90;;;;;;5036364;28;20216;-70
2023/04/23 06:58:42;;;;;;;0.52;0.52;;;10.20;99.90;;;;;;5036008;28;20571;-71
2023/04/23 07:01:09;;;;;;;0.60;0.60;;;10.10;99.90;;;;;;5036165;28;20660;-71
2023/04/23 07:03:35;;;;;;;0.93;0.90;;;10.00;99.90;;;;;;5035719;28;20233;-70
2023/04/23 07:06:01;;;;;;;0.75;0.75;;;9.90;99.90;;;;;;5034660;28;20191;-70
2023/04/23 07:08:27;;;;;;;0.60;0.60;;;9.80;99.90;;;;;;5017821;28;20198;-71
2023/04/23 07:10:53;;;;;;;0.60;0.60;;;9.80;99.90;;;;;;5035596;28;20190;-71
2023/04/23 07:13:18;;;;;;;0.60;0.60;;;9.80;99.90;;;;;;5035886;28;20252;-72
2023/04/23 07:15:47;;;;;;;0.77;0.77;;;9.70;99.90;;;;;;5018288;28;20206;-71
2023/04/23 07:18:13;;;;;;;0.80;0.80;;;9.70;99.90;;;;;;5036171;28;20198;-70
2023/04/23 07:20:39;;;;;;;0.60;0.60;;;9.60;99.90;;;;;;5035476;28;20268;-71
2023/04/23 07:23:05;;;;;;;0.70;0.70;;;9.60;99.90;;;;;;5035829;28;20797;-71
2023/04/23 07:25:31;;;;;;;0.60;0.60;;;9.60;99.90;;;;;;5035829;28;20245;-71
2023/04/23 07:27:57;;;;;;;0.60;0.60;;;9.60;99.90;;;;;;5035018;28;20196;-71
2023/04/23 07:30:26;;;;;;;0.63;0.63;;;9.60;99.90;;;;;;5035516;28;20190;-71
2023/04/23 07:33:30;;;;;;;0.60;0.60;;;9.60;99.90;;;;;;5035768;28;20661;-71
2023/04/23 07:36:33;;;;;;;0.60;0.60;;;9.70;99.90;;;;;;5034972;28;20210;-71
2023/04/23 07:39:36;;;;;;;0.70;0.70;;;9.70;99.90;;;;;;5035461;28;20194;-70
2023/04/23 07:42:39;;;;;;;0.68;0.68;;;9.90;99.90;;;;;;5015213;28;20657;-71
2023/04/23 07:45:42;;;;;;;0.73;0.70;;;9.90;99.90;;;;;;5015173;28;20218;-72
2023/04/23 07:48:45;;;;;;;0.60;0.60;;;10.10;99.90;;;;;;5015166;28;20194;-70
2023/04/23 07:51:48;;;;;;;0.50;0.50;;;10.20;99.90;;;;;;5015397;28;20198;-70
2023/04/23 07:54:51;;;;;;;0.52;0.52;;;10.50;99.90;;;;;;5015609;28;20293;-72
2023/04/23 07:57:54;;;;;;;0.60;0.60;;;10.50;99.90;;;;;;5015128;28;20241;-70
2023/04/23 08:00:57;;;;;;;0.55;0.55;;;10.40;99.90;;;;;;5014790;28;20202;-70
2023/04/23 08:04:00;;;;;;;5.38;1.67;;;10.30;99.90;;;;;;5014694;28;20254;-71
2023/04/23 08:07:03;;;;;;;1.02;1.02;;;10.20;99.90;;;;;;5014525;28;20202;-71
2023/04/23 08:10:06;;;;;;;0.50;0.50;;;10.00;99.90;;;;;;5014662;28;20222;-70
2023/04/23 08:13:10;;;;;;;1.13;1.02;;;10.00;99.90;;;;;;5014628;28;20229;-71
2023/04/23 08:16:13;;;;;;;1.40;1.30;;;10.00;99.90;;;;;;5014398;28;20198;-70
2023/04/23 08:19:16;;;;;;;0.57;0.57;;;9.90;99.90;;;;;;5033987;28;20673;-70
2023/04/23 08:22:19;;;;;;;0.60;0.60;;;9.80;99.90;;;;;;5034124;28;20634;-70
2023/04/23 08:25:22;;;;;;;0.80;0.80;;;9.80;99.90;;;;;;5016335;28;20214;-70
2023/04/23 08:28:26;;;;;;;0.60;0.60;;;9.70;99.90;;;;;;5034034;28;20194;-71
2023/04/23 08:31:29;;;;;;;0.82;0.82;;;9.60;99.90;;;;;;5034166;28;20209;-71
2023/04/23 08:34:33;;;;;;;0.80;0.80;;;9.60;99.90;;;;;;5016294;28;20206;-70
2023/04/23 08:37:37;;;;;;;0.60;0.60;;;9.60;99.90;;;;;;5014286;28;20198;-71
2023/04/23 08:40:41;;;;;;;1.95;1.58;;;9.60;99.90;;;;;;5013179;28;20209;-70
2023/04/23 08:43:44;;;;;;;0.60;0.60;;;9.70;99.90;;;;;;5024166;28;20577;-70
2023/04/23 08:46:47;;;;;;;0.50;0.50;;;9.60;99.90;;;;;;5033883;28;20272;-70
2023/04/23 08:49:52;;;;;;;0.60;0.60;;;9.50;99.90;;;;;;5032581;28;20691;-69
2023/04/23 08:52:55;;;;;;;0.60;0.60;;;9.30;99.90;;;;;;5033703;28;20190;-70
2023/04/23 08:56:00;;;;;;;1.17;1.08;;;9.10;99.90;;;;;;5033441;28;20190;-70
2023/04/23 08:59:03;;;;;;;0.60;0.60;;;9.00;99.90;;;;;;5033407;28;20594;-70
2023/04/23 09:02:08;;;;;;;1.95;1.55;;;8.80;99.90;;;;;;5033253;28;20197;-71
2023/04/23 09:05:12;;;;;;;11.18;1.27;;;8.90;99.90;;;;;;5033285;28;20217;-69
2023/04/23 09:08:15;;;;;;;0.75;0.75;;;8.90;99.90;;;;;;5031858;28;20202;-70
2023/04/23 09:11:18;;;;;;;0.60;0.60;;;8.90;99.90;;;;;;5031990;28;20216;-69
2023/04/23 09:14:23;;;;;;;0.70;0.70;;;8.90;99.90;;;;;;5032945;28;20668;-70
2023/04/23 09:17:26;;;;;;;0.60;0.60;;;8.90;99.90;;;;;;5033599;28;20616;-70
2023/04/23 09:20:29;;;;;;;0.60;0.60;;;9.00;99.90;;;;;;5033582;28;20202;-69
2023/04/23 09:23:33;;;;;;;0.60;0.60;;;9.00;99.90;;;;;;5016005;28;20564;-69
2023/04/23 09:26:36;;;;;;;0.60;0.60;;;8.90;99.90;;;;;;5015240;28;20202;-70
2023/04/23 09:29:39;;;;;;;0.60;0.60;;;8.80;99.90;;;;;;5015625;28;20572;-69
2023/04/23 09:32:44;;;;;;;0.60;0.60;;;8.90;99.90;;;;;;5015052;28;20210;-69
2023/04/23 09:35:47;;;;;;;0.70;0.70;;;8.80;99.90;;;;;;5032755;28;20549;-71
2023/04/23 09:38:50;;;;;;;0.60;0.60;;;8.70;99.90;;;;;;5031388;28;20683;-68
2023/04/23 09:41:53;;;;;;;0.60;0.60;;;8.60;99.90;;;;;;5032863;28;20204;-68
2023/04/23 09:44:57;;;;;;;0.60;0.60;;;8.60;99.90;;;;;;5031402;28;20263;-71
2023/04/23 09:48:01;;;;;;;0.60;0.60;;;8.60;99.90;;;;;;5033034;28;20568;-70
2023/04/23 09:51:04;;;;;;;0.60;0.60;;;8.70;99.90;;;;;;5031371;28;20201;-69
2023/04/23 09:54:07;;;;;;;0.68;0.68;;;8.80;99.90;;;;;;5032661;28;20205;-70
2023/04/23 09:57:10;;;;;;;0.60;0.60;;;8.70;99.90;;;;;;5032603;28;20603;-69
2023/04/23 10:00:15;;;;;;;0.50;0.50;;;8.70;99.90;;;;;;5032445;28;20197;-70
2023/04/23 10:03:18;;;;;;;0.60;0.60;;;8.80;99.90;;;;;;5032058;28;20762;-69
2023/04/23 10:06:21;;;;;;;0.70;0.70;;;8.90;99.90;;;;;;5032449;28;20590;-71
2023/04/23 10:09:24;;;;;;;0.70;0.70;;;8.90;99.90;;;;;;5032465;28;20567;-71
2023/04/23 10:12:30;;;;;;;0.60;0.60;;;8.90;99.90;;;;;;5012863;28;20221;-71
2023/04/23 10:15:33;;;;;;;0.60;0.60;;;8.80;99.90;;;;;;5012727;28;20249;-71
2023/04/23 10:18:36;;;;;;;0.60;0.60;;;8.70;99.90;;;;;;5012690;28;20202;-69
2023/04/23 10:21:40;;;;;;;0.65;0.65;;;8.90;99.90;;;;;;5011336;28;20203;-70
2023/04/23 10:24:43;;;;;;;0.60;0.60;;;9.10;99.90;;;;;;5011320;28;20229;-70
2023/04/23 10:27:46;;;;;;;0.60;0.60;;;9.20;99.90;;;;;;5012510;28;20562;-71
2023/04/23 10:30:49;;;;;;;0.63;0.63;;;9.20;99.90;;;;;;5011356;28;20222;-71
2023/04/23 10:33:52;;;;;;;1.35;1.30;;;9.20;99.90;;;;;;5011302;28;20250;-70
2023/04/23 10:36:56;;;;;;;0.60;0.60;;;9.20;99.90;;;;;;5028533;28;20272;-67
2023/04/23 10:39:59;;;;;;;1.40;1.15;;;9.30;99.90;;;;;;5031290;28;20213;-70
2023/04/23 10:43:03;;;;;;;0.68;0.68;;;9.50;99.90;;;;;;5031154;28;20296;-71
2023/04/23 10:46:06;;;;;;;0.60;0.60;;;9.70;99.90;;;;;;5032548;28;20202;-72
2023/04/23 10:49:09;;;;;;;1.77;1.30;;;9.90;99.90;;;;;;5032571;28;20190;-72
2023/04/23 10:52:16;;;;;;;0.70;0.70;;;10.10;99.90;;;;;;5030805;28;20298;-72
2023/04/23 10:55:19;;;;;;;0.50;0.50;;;10.40;99.90;;;;;;5031236;28;20754;-72
2023/04/23 10:58:23;;;;;;;1.58;1.48;;;10.50;99.90;;;;;;5032489;28;20205;-70
2023/04/23 11:01:26;;;;;;;1.08;1.08;;;10.40;99.90;;;;;;5031249;28;20682;-71
2023/04/23 11:04:30;;;;;;;0.60;0.60;;;10.50;99.90;;;;;;5034996;28;20591;-70
2023/04/23 11:07:33;;;;;;;1.77;1.50;;;10.50;99.90;;;;;;5028307;28;20252;-70
2023/04/23 11:10:36;;;;;;;0.60;0.60;;;10.30;99.90;;;;;;5018021;28;20205;-70
2023/04/23 11:13:39;;;;;;;0.70;0.70;;;10.20;99.90;;;;;;5035833;28;20222;-69
2023/04/23 11:16:42;;;;;;;0.60;0.60;;;10.10;99.90;;;;;;5035642;28;20190;-68
2023/04/23 11:19:46;;;;;;;0.75;0.75;;;9.80;99.90;;;;;;5017967;28;20228;-70
2023/04/23 11:22:49;;;;;;;4.35;3.55;;;9.60;99.90;;;;;;5017846;28;20235;-69
2023/04/23 11:25:52;;;;;;;0.70;0.70;;;9.50;99.90;;;;;;5035101;28;20325;-71
2023/04/23 11:28:55;;;;;;;0.80;0.80;;;9.40;99.90;;;;;;5035324;28;20695;-70
2023/04/23 11:32:01;;;;;;;0.65;0.65;;;9.30;99.90;;;;;;5035147;28;20185;-70
2023/04/23 11:35:04;;;;;;;0.70;0.70;;;9.30;99.90;;;;;;5033045;28;20248;-70
2023/04/23 11:38:09;;;;;;;0.60;0.60;;;9.30;99.90;;;;;;5015430;28;20199;-70
2023/04/23 11:41:12;;;;;;;0.65;0.65;;;9.20;99.90;;;;;;5015268;28;20666;-70
2023/04/23 11:44:15;;;;;;;0.80;0.80;;;9.20;99.90;;;;;;5013812;28;20830;-69
2023/04/23 11:47:18;;;;;;;0.50;0.50;;;9.30;99.90;;;;;;5015107;28;20203;-70
2023/04/23 11:50:21;;;;;;;2.42;1.48;;;9.40;99.90;;;;;;5015414;28;20191;-70
2023/04/23 11:53:25;;;;;;;11.13;4.05;;;9.30;99.90;;;;;;5015150;28;20249;-71
2023/04/23 11:56:28;;;;;;;0.88;0.88;;;9.40;99.90;;;;;;5013831;28;20209;-69
2023/04/23 11:59:31;;;;;;;1.30;1.15;;;9.40;99.90;;;;;;5015024;28;20221;-70
2023/04/23 12:02:34;;;;;;;3.33;2.47;;;9.40;99.90;;;;;;5023961;28;20241;-70
2023/04/23 12:05:38;;;;;;;0.60;0.60;;;9.30;99.90;;;;;;5030413;28;20755;-69
2023/04/23 12:08:42;;;;;;;0.60;0.60;;;9.40;99.90;;;;;;5034629;28;20606;-70
2023/04/23 12:11:45;;;;;;;0.70;0.70;;;9.30;99.90;;;;;;5016280;28;20210;-70
2023/04/23 12:14:48;;;;;;;0.93;0.93;;;9.30;99.90;;;;;;5034411;28;20669;-69
2023/04/23 12:17:51;;;;;;;0.70;0.70;;;9.40;99.90;;;;;;5034482;28;20715;-71
2023/04/23 12:20:54;;;;;;;1.80;1.70;;;9.60;99.90;;;;;;5034726;28;20194;-70
2023/04/23 12:23:57;;;;;;;2.78;2.50;;;9.60;99.90;;;;;;5034236;28;20216;-70
2023/04/23 12:27:01;;;;;;;11.50;2.95;;;9.60;99.90;;;;;;5016276;28;20194;-69
2023/04/23 12:30:04;;;;;;;0.50;0.50;;;9.60;99.90;;;;;;4997075;28;20669;-72
2023/04/23 12:33:08;;;;;;;0.68;0.68;;;9.50;99.90;;;;;;5013183;28;20202;-70
2023/04/23 12:36:11;;;;;;;0.63;0.63;;;9.30;99.90;;;;;;5024078;28;20197;-70
2023/04/23 12:39:14;;;;;;;0.70;0.70;;;9.20;99.90;;;;;;5034078;28;20244;-72
2023/04/23 12:42:17;;;;;;;1.17;0.85;;;9.20;99.90;;;;;;5034287;28;20221;-72
2023/04/23 12:45:20;;;;;;;0.60;0.60;;;9.30;99.90;;;;;;5034039;28;20217;-72
2023/04/23 12:48:23;;;;;;;0.60;0.60;;;9.20;99.90;;;;;;5033056;28;20208;-72
2023/04/23 12:51:26;;;;;;;0.60;0.60;;;9.30;99.90;;;;;;5034405;28;20275;-72
2023/04/23 12:54:30;;;;;;;0.60;0.60;;;9.40;99.90;;;;;;5016689;28;20197;-72
2023/04/23 12:57:33;;;;;;;0.60;0.60;;;9.30;99.90;;;;;;5030380;28;20221;-72
2023/04/23 13:00:36;;;;;;;0.57;0.57;;;9.30;99.90;;;;;;5045762;28;20204;-71
2023/04/23 13:03:39;;;;;;;0.60;0.60;;;9.20;99.90;;;;;;5050962;28;20704;-70
2023/04/23 13:06:42;;;;;;;0.80;0.80;;;9.30;99.90;;;;;;5053413;28;20215;-70
2023/04/23 13:09:46;;;;;;;0.60;0.60;;;9.40;99.90;;;;;;5053439;28;20221;-70
2023/04/23 13:12:49;;;;;;;0.80;0.80;;;9.20;99.90;;;;;;5053645;28;20200;-71
2023/04/23 13:15:55;;;;;;;0.60;0.60;;;9.20;99.90;;;;;;5053659;28;20211;-71
2023/04/23 13:18:58;;;;;;;0.60;0.60;;;9.30;99.90;;;;;;5035656;28;20282;-71
2023/04/23 13:22:02;;;;;;;0.60;0.60;;;9.20;99.90;;;;;;5053428;28;20668;-71
2023/04/23 13:25:05;;;;;;;0.68;0.68;;;9.20;99.90;;;;;;5041212;28;20214;-68
2023/04/23 13:28:08;;;;;;;0.60;0.60;;;9.30;99.90;;;;;;5033051;28;20198;-69
2023/04/23 13:31:12;;;;;;;0.70;0.70;;;9.30;99.90;;;;;;5033144;28;20299;-70
2023/04/23 13:34:15;;;;;;;0.90;0.90;;;9.40;99.90;;;;;;5032884;28;20193;-70
2023/04/23 13:37:18;;;;;;;0.65;0.65;;;9.40;99.90;;;;;;5013485;28;20222;-69
2023/04/23 13:40:21;;;;;;;1.25;1.15;;;9.50;99.90;;;;;;5011905;28;20206;-69
2023/04/23 13:43:25;;;;;;;0.70;0.70;;;9.40;99.90;;;;;;5020079;28;20720;-70
2023/04/23 13:46:28;;;;;;;0.82;0.82;;;9.40;99.90;;;;;;5015162;28;20677;-69
2023/04/23 13:49:31;;;;;;;1.65;0.85;;;9.40;99.90;;;;;;5032875;28;20436;-69
2023/04/23 13:52:36;;;;;;;0.75;0.75;;;9.30;99.90;;;;;;5015234;28;20216;-69
2023/04/23 13:55:39;;;;;;;0.60;0.60;;;9.40;99.90;;;;;;5032418;28;20653;-69
2023/04/23 13:58:45;;;;;;;1.50;0.98;;;9.40;99.90;;;;;;5014975;28;20212;-69
2023/04/23 14:01:48;;;;;;;0.95;0.95;;;9.40;99.90;;;;;;5014788;28;20201;-70
2023/04/23 14:04:51;;;;;;;0.70;0.70;;;9.60;99.90;;;;;;5032301;28;20264;-70
2023/04/23 14:07:55;;;;;;;0.70;0.70;;;9.60;99.90;;;;;;5014791;28;20204;-70
2023/04/23 14:10:58;;;;;;;0.52;0.52;;;9.80;99.90;;;;;;5032469;28;20712;-70